createdAt,value
2022-08-14T00:00:42.676Z,27.6
2022-08-14T00:02:02.342Z,27.5
2022-08-14T00:03:07.326Z,27.5
2022-08-14T00:04:46.203Z,27.5
2022-08-14T00:06:25.966Z,27.4
2022-08-14T00:07:31.769Z,27.4
2022-08-14T00:08:46.610Z,27.3
2022-08-14T00:10:54.381Z,27.3
2022-08-14T00:11:58.000Z,27.2
2022-08-14T00:13:07.830Z,27.2
2022-08-14T00:14:18.936Z,27.2
2022-08-14T00:15:23.113Z,27.2
2022-08-14T00:16:46.187Z,27.2
2022-08-14T00:17:57.167Z,27.2
2022-08-14T00:19:22.398Z,27.3
2022-08-14T00:20:44.486Z,27.2
2022-08-14T00:21:52.121Z,27.2
2022-08-14T00:23:18.441Z,27.2
2022-08-14T00:24:32.152Z,27.2
2022-08-14T00:26:08.387Z,27.2
2022-08-14T00:27:25.376Z,27.2
2022-08-14T00:28:37.950Z,27.2
2022-08-14T00:29:44.001Z,27.2
2022-08-14T00:30:46.075Z,27.2
2022-08-14T00:31:58.027Z,27.2
2022-08-14T00:33:16.982Z,27.2
2022-08-14T00:34:49.120Z,27.2
2022-08-14T00:36:50.691Z,27.2
2022-08-14T00:37:54.312Z,27.3
2022-08-14T00:38:57.987Z,27.3
2022-08-14T00:40:18.981Z,27.3
2022-08-14T00:41:43.158Z,27.3
2022-08-14T00:43:15.770Z,27.3
2022-08-14T00:44:34.329Z,27.3
2022-08-14T00:45:43.131Z,27.2
2022-08-14T00:47:01.290Z,27.2
2022-08-14T00:48:05.500Z,27.2
2022-08-14T00:49:15.701Z,27.1
2022-08-14T00:50:26.050Z,27.1
2022-08-14T00:51:42.683Z,27.2
2022-08-14T00:52:51.675Z,27.2
2022-08-14T00:53:54.264Z,27.2
2022-08-14T00:55:02.205Z,27.2
2022-08-14T00:56:15.500Z,27.3
2022-08-14T00:57:18.945Z,27.3
2022-08-14T00:58:34.288Z,27.3
2022-08-14T00:59:38.296Z,27.3
2022-08-14T01:01:02.289Z,27.3
2022-08-14T01:02:05.631Z,27.3
2022-08-14T01:03:13.376Z,27.3
2022-08-14T01:04:56.707Z,27.3
2022-08-14T01:06:07.915Z,27.3
2022-08-14T01:07:11.273Z,27.3
2022-08-14T01:09:00.932Z,27.2
2022-08-14T01:10:05.441Z,27.3
2022-08-14T01:11:07.894Z,27.2
2022-08-14T01:12:12.488Z,27.3
2022-08-14T01:13:44.011Z,27.3
2022-08-14T01:15:15.724Z,27.2
2022-08-14T01:16:32.430Z,27.2
2022-08-14T01:17:34.824Z,27.2
2022-08-14T01:18:38.639Z,27.2
2022-08-14T01:19:48.050Z,27.2
2022-08-14T01:21:00.479Z,27.2
2022-08-14T01:22:05.186Z,27.2
2022-08-14T01:23:08.836Z,27.2
2022-08-14T01:24:29.002Z,27.2
2022-08-14T01:25:40.427Z,27.2
2022-08-14T01:26:51.647Z,27.1
2022-08-14T01:28:00.832Z,27.2
2022-08-14T01:29:04.535Z,27.1
2022-08-14T01:30:08.023Z,27.1
2022-08-14T01:31:11.105Z,27
2022-08-14T01:32:25.393Z,27
2022-08-14T01:36:23.451Z,26.9
2022-08-14T01:37:26.925Z,26.8
2022-08-14T01:38:29.827Z,26.6
2022-08-14T01:39:38.518Z,26.6
2022-08-14T01:40:42.849Z,26.6
2022-08-14T01:41:47.949Z,26.6
2022-08-14T01:42:54.033Z,26.6
2022-08-14T01:44:00.286Z,26.5
2022-08-14T01:45:03.182Z,26.5
2022-08-14T01:46:25.097Z,26.6
2022-08-14T01:47:38.906Z,26.5
2022-08-14T01:48:42.561Z,26.4
2022-08-14T01:50:03.066Z,26.4
2022-08-14T01:51:21.469Z,26.4
2022-08-14T01:53:04.306Z,26.3
2022-08-14T01:54:18.564Z,26.4
2022-08-14T01:55:27.561Z,26.4
2022-08-14T01:56:40.347Z,26.4
2022-08-14T01:58:30.290Z,26.4
2022-08-14T01:59:44.364Z,26.3
2022-08-14T02:00:49.883Z,26.2
2022-08-14T02:02:04.191Z,26.1
2022-08-14T02:03:23.129Z,26.2
2022-08-14T02:04:58.661Z,26.2
2022-08-14T02:06:34.988Z,26.3
2022-08-14T02:08:11.396Z,26.3
2022-08-14T02:09:40.615Z,26.4
2022-08-14T02:10:49.197Z,26.4
2022-08-14T02:11:57.822Z,26.3
2022-08-14T02:13:02.376Z,26.2
2022-08-14T02:14:32.335Z,26.2
2022-08-14T02:15:45.156Z,26.2
2022-08-14T02:16:55.374Z,26.2
2022-08-14T02:18:00.448Z,26.2
2022-08-14T02:19:03.490Z,26.2
2022-08-14T02:20:06.366Z,26.1
2022-08-14T02:21:08.932Z,26.3
2022-08-14T02:22:33.993Z,26.2
2022-08-14T02:23:57.491Z,26.3
2022-08-14T02:24:59.287Z,26.3
2022-08-14T02:28:20.352Z,26.3
2022-08-14T02:30:05.424Z,26.4
2022-08-14T02:31:16.099Z,26.4
2022-08-14T02:32:45.741Z,26.4
2022-08-14T02:33:52.206Z,26.4
2022-08-14T02:34:56.413Z,26.4
2022-08-14T02:37:11.271Z,26.4
2022-08-14T02:38:36.207Z,26.3
2022-08-14T02:39:39.271Z,26.3
2022-08-14T02:40:49.771Z,26.3
2022-08-14T02:42:04.784Z,26.2
2022-08-14T02:43:10.845Z,26.2
2022-08-14T02:44:30.633Z,26.2
2022-08-14T02:45:51.173Z,26.2
2022-08-14T02:47:02.531Z,26.3
2022-08-14T02:49:07.457Z,26.1
2022-08-14T02:50:12.917Z,26.1
2022-08-14T02:51:20.079Z,26.2
2022-08-14T02:53:04.704Z,26.1
2022-08-14T02:54:20.018Z,26.1
2022-08-14T02:55:22.705Z,26.2
2022-08-14T02:57:43.019Z,26.1
2022-08-14T02:58:56.047Z,26.1
2022-08-14T03:00:11.518Z,26
2022-08-14T03:01:55.500Z,26
2022-08-14T03:03:02.759Z,25.8
2022-08-14T03:04:11.573Z,25.8
2022-08-14T03:05:15.764Z,25.8
2022-08-14T03:07:08.648Z,25.8
2022-08-14T03:08:20.845Z,25.9
2022-08-14T03:09:23.812Z,25.9
2022-08-14T03:10:35.323Z,25.9
2022-08-14T03:11:37.846Z,25.9
2022-08-14T03:12:40.203Z,25.8
2022-08-14T03:13:43.412Z,25.7
2022-08-14T03:14:46.260Z,25.8
2022-08-14T03:15:59.134Z,25.8
2022-08-14T03:17:11.342Z,25.8
2022-08-14T03:18:33.232Z,25.9
2022-08-14T03:19:37.374Z,25.9
2022-08-14T03:20:40.232Z,25.9
2022-08-14T03:21:42.682Z,25.8
2022-08-14T03:22:52.263Z,25.7
2022-08-14T03:23:54.381Z,25.7
2022-08-14T03:24:58.455Z,25.6
2022-08-14T03:26:01.091Z,25.7
2022-08-14T03:27:10.267Z,25.6
2022-08-14T03:28:37.076Z,25.5
2022-08-14T03:29:48.560Z,25.5
2022-08-14T03:31:00.284Z,25.5
2022-08-14T03:32:06.364Z,25.5
2022-08-14T03:33:13.196Z,25.4
2022-08-14T03:34:58.698Z,25.4
2022-08-14T03:39:28.043Z,25.5
2022-08-14T03:40:32.609Z,25.5
2022-08-14T03:41:39.700Z,25.4
2022-08-14T03:42:47.210Z,25.4
2022-08-14T03:45:36.296Z,25.4
2022-08-14T03:46:57.572Z,25.2
2022-08-14T03:48:03.371Z,25.3
2022-08-14T03:49:50.918Z,25.2
2022-08-14T03:50:59.108Z,25.1
2022-08-14T03:52:04.474Z,25.1
2022-08-14T03:53:58.222Z,25
2022-08-14T03:55:00.329Z,25
2022-08-14T03:56:05.332Z,24.9
2022-08-14T03:57:10.971Z,24.9
2022-08-14T03:58:37.689Z,24.9
2022-08-14T03:59:43.280Z,24.8
2022-08-14T04:00:46.787Z,24.8
2022-08-14T04:02:53.252Z,24.7
2022-08-14T04:03:59.479Z,24.6
2022-08-14T04:05:17.549Z,24.6
2022-08-14T04:06:47.585Z,24.6
2022-08-14T04:08:33.334Z,24.6
2022-08-14T04:09:35.403Z,24.6
2022-08-14T04:10:40.860Z,24.5
2022-08-14T04:11:44.390Z,24.5
2022-08-14T04:12:55.094Z,24.5
2022-08-14T04:14:08.727Z,24.6
2022-08-14T04:15:11.085Z,24.6
2022-08-14T04:16:14.470Z,24.6
2022-08-14T04:17:22.585Z,24.5
2022-08-14T04:18:26.320Z,24.5
2022-08-14T04:19:37.452Z,24.5
2022-08-14T04:20:57.242Z,24.6
2022-08-14T04:22:05.902Z,24.5
2022-08-14T04:23:34.071Z,24.6
2022-08-14T04:24:41.780Z,24.6
2022-08-14T04:25:48.446Z,24.7
2022-08-14T04:26:50.526Z,24.7
2022-08-14T04:28:05.220Z,24.7
2022-08-14T04:29:17.241Z,24.6
2022-08-14T04:30:34.430Z,24.8
2022-08-14T04:33:22.586Z,24.8
2022-08-14T04:34:30.587Z,24.8
2022-08-14T04:35:58.649Z,24.8
2022-08-14T04:37:05.054Z,24.9
2022-08-14T04:38:41.288Z,25
2022-08-14T04:40:03.407Z,24.9
2022-08-14T04:41:11.555Z,25
2022-08-14T04:42:18.143Z,24.9
2022-08-14T04:43:22.544Z,24.8
2022-08-14T04:44:38.515Z,24.8
2022-08-14T04:45:41.262Z,24.9
2022-08-14T04:46:58.829Z,24.8
2022-08-14T04:48:01.347Z,24.9
2022-08-14T04:49:15.380Z,24.9
2022-08-14T04:50:18.087Z,24.9
2022-08-14T04:51:25.627Z,24.8
2022-08-14T04:52:28.647Z,24.8
2022-08-14T04:53:44.911Z,24.8
2022-08-14T04:54:49.801Z,24.8
2022-08-14T04:55:54.767Z,24.8
2022-08-14T04:56:57.989Z,24.7
2022-08-14T04:58:03.131Z,24.7
2022-08-14T04:59:36.241Z,24.8
2022-08-14T05:00:47.890Z,24.8
2022-08-14T05:01:59.178Z,24.8
2022-08-14T05:03:02.654Z,24.9
2022-08-14T05:04:21.386Z,24.9
2022-08-14T05:05:26.456Z,24.9
2022-08-14T05:06:40.464Z,24.9
2022-08-14T05:08:10.304Z,24.9
2022-08-14T05:10:32.617Z,24.9
2022-08-14T05:11:38.070Z,24.8
2022-08-14T05:14:47.045Z,24.9
2022-08-14T05:15:58.586Z,25
2022-08-14T05:17:03.708Z,25
2022-08-14T05:19:32.147Z,25
2022-08-14T05:23:01.850Z,25.1
2022-08-14T05:24:06.323Z,25.2
2022-08-14T05:25:22.469Z,25.2
2022-08-14T05:26:26.265Z,25.2
2022-08-14T05:27:32.872Z,25.3
2022-08-14T05:28:35.163Z,25.3
2022-08-14T05:29:39.287Z,25.3
2022-08-14T05:30:45.354Z,25.3
2022-08-14T05:31:58.985Z,25.4
2022-08-14T05:33:02.250Z,25.4
2022-08-14T05:34:04.153Z,25.3
2022-08-14T05:35:08.037Z,25.4
2022-08-14T05:36:21.813Z,25.5
2022-08-14T05:37:31.164Z,25.5
2022-08-14T05:38:36.768Z,25.5
2022-08-14T05:39:42.066Z,25.6
2022-08-14T05:40:44.787Z,25.7
2022-08-14T05:41:55.623Z,25.8
2022-08-14T05:42:59.530Z,25.9
2022-08-14T05:44:01.601Z,26
2022-08-14T05:45:14.015Z,25.9
2022-08-14T05:46:17.351Z,26
2022-08-14T05:47:20.763Z,26
2022-08-14T05:48:46.576Z,26.1
2022-08-14T05:49:52.260Z,26.1
2022-08-14T05:50:55.267Z,26.2
2022-08-14T05:52:10.089Z,26.2
2022-08-14T05:53:23.383Z,26.3
2022-08-14T05:54:37.176Z,26.3
2022-08-14T05:55:46.127Z,26.2
2022-08-14T05:56:56.036Z,26.2
2022-08-14T05:58:01.124Z,26.3
2022-08-14T05:59:03.481Z,26.2
2022-08-14T06:00:09.125Z,26.3
2022-08-14T06:01:34.353Z,26.4
2022-08-14T06:02:39.103Z,26.4
2022-08-14T06:03:48.442Z,26.4
2022-08-14T06:05:00.689Z,26.4
2022-08-14T06:06:03.954Z,26.4
2022-08-14T06:07:07.260Z,26.5
2022-08-14T06:08:42.813Z,26.5
2022-08-14T06:09:53.863Z,26.5
2022-08-14T06:10:56.501Z,26.5
2022-08-14T06:12:01.242Z,26.6
2022-08-14T06:13:03.878Z,26.6
2022-08-14T06:14:26.771Z,26.5
2022-08-14T06:15:31.914Z,26.5
2022-08-14T06:16:36.048Z,26.5
2022-08-14T06:18:02.351Z,26.5
2022-08-14T06:19:18.644Z,26.5
2022-08-14T06:20:23.670Z,26.6
2022-08-14T06:21:29.855Z,26.7
2022-08-14T06:22:38.883Z,26.8
2022-08-14T06:23:42.463Z,26.9
2022-08-14T06:24:46.071Z,26.9
2022-08-14T06:25:55.662Z,26.9
2022-08-14T06:27:11.564Z,26.9
2022-08-14T06:28:29.682Z,26.9
2022-08-14T06:29:35.788Z,27
2022-08-14T06:30:48.939Z,27
2022-08-14T06:32:43.229Z,27
2022-08-14T06:35:15.356Z,27.1
2022-08-14T06:36:20.569Z,27.1
2022-08-14T06:37:24.679Z,27.2
2022-08-14T06:38:27.856Z,27.3
2022-08-14T06:39:39.446Z,27.3
2022-08-14T06:40:47.321Z,27.4
2022-08-14T06:42:00.886Z,27.4
2022-08-14T06:43:07.486Z,27.6
2022-08-14T06:44:12.172Z,27.6
2022-08-14T06:45:18.999Z,27.6
2022-08-14T06:46:38.846Z,27.6
2022-08-14T06:47:46.933Z,27.6
2022-08-14T06:48:50.670Z,27.7
2022-08-14T06:50:00.294Z,27.8
2022-08-14T06:51:02.652Z,27.7
2022-08-14T06:52:08.784Z,27.7
2022-08-14T06:53:11.721Z,27.7
2022-08-14T06:54:13.878Z,27.7
2022-08-14T06:55:30.063Z,27.8
2022-08-14T06:56:33.278Z,27.8
2022-08-14T06:57:39.762Z,27.6
2022-08-14T06:58:43.596Z,27.8
2022-08-14T06:59:45.731Z,27.8
2022-08-14T07:00:54.017Z,27.8
2022-08-14T07:01:58.573Z,27.9
2022-08-14T07:03:01.640Z,27.9
2022-08-14T07:04:05.224Z,28
2022-08-14T07:05:27.036Z,28
2022-08-14T07:06:50.949Z,28.1
2022-08-14T07:08:01.483Z,28.1
2022-08-14T07:09:05.675Z,28.1
2022-08-14T07:10:17.696Z,28.2
2022-08-14T07:11:20.949Z,28.2
2022-08-14T07:13:07.291Z,28.3
2022-08-14T07:14:16.802Z,28.3
2022-08-14T07:15:19.527Z,28.3
2022-08-14T07:16:28.689Z,28.4
2022-08-14T07:17:43.649Z,28.4
2022-08-14T07:18:51.990Z,28.5
2022-08-14T07:19:55.494Z,28.5
2022-08-14T07:20:59.355Z,28.5
2022-08-14T07:22:21.899Z,28.5
2022-08-14T07:23:26.716Z,28.6
2022-08-14T07:24:35.888Z,28.6
2022-08-14T07:25:39.033Z,28.7
2022-08-14T07:26:46.537Z,28.7
2022-08-14T07:27:49.722Z,28.8
2022-08-14T07:28:52.421Z,28.8
2022-08-14T07:29:59.054Z,28.9
2022-08-14T07:31:06.489Z,28.9
2022-08-14T07:32:34.449Z,28.9
2022-08-14T07:33:51.101Z,29
2022-08-14T07:34:59.315Z,29
2022-08-14T07:36:03.458Z,29
2022-08-14T07:37:35.301Z,29
2022-08-14T07:38:40.157Z,29
2022-08-14T07:39:45.341Z,29
2022-08-14T07:40:53.570Z,29
2022-08-14T07:41:58.249Z,29.1
2022-08-14T07:43:17.170Z,29.1
2022-08-14T07:44:51.322Z,29.1
2022-08-14T07:45:57.681Z,29.2
2022-08-14T07:47:00.987Z,29.3
2022-08-14T07:48:16.786Z,29.3
2022-08-14T07:49:29.300Z,29.3
2022-08-14T07:50:38.834Z,29.3
2022-08-14T07:51:40.844Z,29.2
2022-08-14T07:52:47.451Z,29.2
2022-08-14T07:53:58.782Z,29.2
2022-08-14T07:55:01.716Z,29.1
2022-08-14T07:56:56.908Z,29.2
2022-08-14T07:58:52.972Z,29.2
2022-08-14T08:00:03.458Z,29.2
2022-08-14T08:01:09.893Z,29.2
2022-08-14T08:02:23.073Z,29.3
2022-08-14T08:03:33.238Z,29.3
2022-08-14T08:04:42.462Z,29.3
2022-08-14T08:05:45.488Z,29.3
2022-08-14T08:06:53.326Z,29.4
2022-08-14T08:07:56.049Z,29.4
2022-08-14T08:09:05.550Z,29.5
2022-08-14T08:11:03.772Z,29.5
2022-08-14T08:12:18.472Z,29.6
2022-08-14T08:13:29.857Z,29.6
2022-08-14T08:15:08.338Z,29.6
2022-08-14T08:16:12.412Z,29.7
2022-08-14T08:17:19.619Z,29.7
2022-08-14T08:18:36.519Z,29.8
2022-08-14T08:19:44.742Z,29.8
2022-08-14T08:21:00.887Z,29.9
2022-08-14T08:22:04.318Z,29.9
2022-08-14T08:23:20.911Z,30
2022-08-14T08:24:58.917Z,30.1
2022-08-14T08:26:02.541Z,30.1
2022-08-14T08:27:06.387Z,30.1
2022-08-14T08:28:29.524Z,30.2
2022-08-14T08:29:32.415Z,30.2
2022-08-14T08:30:36.032Z,30.3
2022-08-14T08:31:38.668Z,30.4
2022-08-14T08:32:43.059Z,30.3
2022-08-14T08:33:51.040Z,30.3
2022-08-14T08:34:54.822Z,30.3
2022-08-14T08:35:59.334Z,30.4
2022-08-14T08:37:09.661Z,30.4
2022-08-14T08:40:06.577Z,30.5
2022-08-14T08:41:12.871Z,30.7
2022-08-14T08:42:16.484Z,30.7
2022-08-14T08:43:18.855Z,30.8
2022-08-14T08:44:35.790Z,30.9
2022-08-14T08:45:37.859Z,31
2022-08-14T08:46:48.428Z,31.2
2022-08-14T08:47:52.321Z,31.2
2022-08-14T08:50:31.196Z,31.3
2022-08-14T08:51:35.738Z,31.4
2022-08-14T08:52:53.328Z,31.8
2022-08-14T08:53:58.740Z,32
2022-08-14T08:55:06.318Z,32.1
2022-08-14T08:56:43.412Z,32.2
2022-08-14T08:57:49.058Z,32.2
2022-08-14T08:58:53.676Z,32.3
2022-08-14T09:00:02.509Z,32.4
2022-08-14T09:01:30.236Z,32.2
2022-08-14T09:02:35.168Z,32.2
2022-08-14T09:03:45.299Z,32.2
2022-08-14T09:04:55.186Z,32.2
2022-08-14T09:05:57.880Z,32.3
2022-08-14T09:07:12.043Z,32.4
2022-08-14T09:08:37.394Z,32.5
2022-08-14T09:10:01.592Z,32.6
2022-08-14T09:11:22.612Z,32.6
2022-08-14T09:12:33.997Z,32.7
2022-08-14T09:13:36.620Z,32.8
2022-08-14T09:14:40.843Z,32.9
2022-08-14T09:15:45.613Z,32.9
2022-08-14T09:16:51.577Z,33
2022-08-14T09:17:57.365Z,33
2022-08-14T09:19:01.011Z,33.1
2022-08-14T09:20:12.414Z,33.1
2022-08-14T09:21:33.972Z,33.2
2022-08-14T09:22:51.503Z,33.2
2022-08-14T09:24:46.762Z,33.3
2022-08-14T09:26:22.303Z,33.3
2022-08-14T09:27:35.891Z,33.5
2022-08-14T09:28:39.006Z,33.5
2022-08-14T09:29:55.103Z,33.5
2022-08-14T09:31:19.039Z,33.7
2022-08-14T09:33:10.713Z,33.8
2022-08-14T09:34:29.516Z,34
2022-08-14T09:35:35.791Z,34.1
2022-08-14T09:36:44.009Z,34.2
2022-08-14T09:37:55.466Z,34.3
2022-08-14T09:39:01.016Z,34.4
2022-08-14T09:40:07.216Z,34.4
2022-08-14T09:41:12.700Z,34.5
2022-08-14T09:42:35.378Z,34.6
2022-08-14T09:43:52.933Z,34.6
2022-08-14T09:45:09.286Z,34.7
2022-08-14T09:46:27.004Z,34.8
2022-08-14T09:47:30.152Z,34.9
2022-08-14T09:48:35.434Z,34.9
2022-08-14T09:49:41.825Z,35
2022-08-14T09:50:44.116Z,35
2022-08-14T09:52:02.027Z,35
2022-08-14T09:54:24.813Z,35.1
2022-08-14T09:55:44.020Z,35.1
2022-08-14T09:57:01.413Z,35.2
2022-08-14T09:58:05.210Z,35.3
2022-08-14T09:59:10.028Z,35.3
2022-08-14T10:00:33.442Z,35.4
2022-08-14T10:01:43.266Z,35.5
2022-08-14T10:02:55.671Z,35.6
2022-08-14T10:04:02.814Z,35.5
2022-08-14T10:05:42.864Z,35.7
2022-08-14T10:06:46.983Z,35.9
2022-08-14T10:08:02.660Z,35.9
2022-08-14T10:09:39.710Z,36
2022-08-14T10:11:03.835Z,36.2
2022-08-14T10:12:18.628Z,36.2
2022-08-14T10:13:57.633Z,36.4
2022-08-14T10:15:04.864Z,36.6
2022-08-14T10:16:35.542Z,36.6
2022-08-14T10:17:42.087Z,36.7
2022-08-14T10:18:51.408Z,37
2022-08-14T10:20:00.951Z,37
2022-08-14T10:21:15.300Z,37.1
2022-08-14T10:23:18.681Z,37.2
2022-08-14T10:24:38.260Z,37.2
2022-08-14T10:25:43.813Z,37.2
2022-08-14T10:26:49.899Z,37.2
2022-08-14T10:27:58.412Z,37.4
2022-08-14T10:29:26.837Z,37.5
2022-08-14T10:30:36.291Z,37.5
2022-08-14T10:31:46.749Z,37.6
2022-08-14T10:33:01.755Z,37.7
2022-08-14T10:34:15.422Z,37.9
2022-08-14T10:35:17.447Z,38
2022-08-14T10:37:02.323Z,38
2022-08-14T10:38:10.014Z,37.9
2022-08-14T10:39:14.030Z,38
2022-08-14T10:41:03.243Z,37.8
2022-08-14T10:42:22.412Z,37.7
2022-08-14T10:43:32.112Z,37.8
2022-08-14T10:44:33.987Z,37.7
2022-08-14T10:48:08.326Z,37.7
2022-08-14T10:49:56.485Z,37.7
2022-08-14T10:51:00.297Z,37.7
2022-08-14T10:52:07.045Z,37.9
2022-08-14T10:53:12.510Z,38
2022-08-14T10:54:47.740Z,38.1
2022-08-14T10:56:06.132Z,38.2
2022-08-14T10:57:41.077Z,37.9
2022-08-14T10:58:45.427Z,38.1
2022-08-14T10:59:48.285Z,38
2022-08-14T11:00:57.640Z,38
2022-08-14T11:02:01.066Z,38.2
2022-08-14T11:03:06.200Z,38.3
2022-08-14T11:04:09.738Z,38.3
2022-08-14T11:05:15.913Z,38.5
2022-08-14T11:06:18.531Z,38.7
2022-08-14T11:07:25.893Z,38.9
2022-08-14T11:08:29.860Z,39
2022-08-14T11:09:34.142Z,39.1
2022-08-14T11:10:43.273Z,39
2022-08-14T11:11:55.401Z,39.1
2022-08-14T11:13:45.573Z,39.2
2022-08-14T11:15:02.436Z,39.2
2022-08-14T11:16:07.997Z,39.3
2022-08-14T11:17:12.432Z,39.3
2022-08-14T11:18:44.757Z,39.5
2022-08-14T11:20:01.299Z,39.6
2022-08-14T11:21:03.960Z,39.5
2022-08-14T11:22:59.396Z,39.6
2022-08-14T11:24:56.838Z,39.7
2022-08-14T11:26:00.873Z,39.8
2022-08-14T11:27:06.091Z,39.6
2022-08-14T11:28:48.653Z,39.3
2022-08-14T11:30:55.207Z,39.1
2022-08-14T11:31:59.441Z,38.9
2022-08-14T11:33:03.466Z,38.7
2022-08-14T11:34:35.732Z,38.6
2022-08-14T11:35:49.574Z,38.3
2022-08-14T11:37:43.758Z,38.1
2022-08-14T11:38:55.714Z,37.8
2022-08-14T11:40:00.277Z,38
2022-08-14T11:41:03.163Z,38.1
2022-08-14T11:43:00.411Z,38.1
2022-08-14T11:44:48.162Z,38.3
2022-08-14T11:46:38.274Z,38.5
2022-08-14T11:49:07.316Z,38.8
2022-08-14T11:50:38.579Z,39.2
2022-08-14T11:51:55.569Z,39.3
2022-08-14T11:53:08.955Z,39.4
2022-08-14T11:54:35.668Z,39.4
2022-08-14T11:55:41.808Z,39.3
2022-08-14T11:56:44.907Z,39.2
2022-08-14T11:58:05.556Z,39.2
2022-08-14T11:59:12.223Z,39.3
2022-08-14T12:00:46.633Z,39.4
2022-08-14T12:01:51.121Z,39.4
2022-08-14T12:03:06.550Z,39.4
2022-08-14T12:04:37.472Z,39.5
2022-08-14T12:05:40.973Z,39.3
2022-08-14T12:06:53.215Z,39.4
2022-08-14T12:07:58.825Z,39.5
2022-08-14T12:09:03.210Z,39.6
2022-08-14T12:10:47.009Z,39.6
2022-08-14T12:11:58.275Z,39.6
2022-08-14T12:13:02.355Z,39.7
2022-08-14T12:14:37.747Z,39.8
2022-08-14T12:15:52.238Z,39.5
2022-08-14T12:17:02.636Z,39.5
2022-08-14T12:18:20.517Z,39.4
2022-08-14T12:19:23.587Z,39.4
2022-08-14T12:20:33.286Z,39.3
2022-08-14T12:21:37.758Z,39.1
2022-08-14T12:22:52.790Z,39.1
2022-08-14T12:24:03.770Z,39.1
2022-08-14T12:25:13.440Z,39.1
2022-08-14T12:26:42.378Z,39.2
2022-08-14T12:28:04.115Z,39.2
2022-08-14T12:29:10.346Z,39.2
2022-08-14T12:30:21.398Z,39.2
2022-08-14T12:31:53.927Z,39.1
2022-08-14T12:32:57.912Z,39.2
2022-08-14T12:34:01.405Z,39.3
2022-08-14T12:35:13.134Z,39.3
2022-08-14T12:36:22.313Z,39.5
2022-08-14T12:37:27.509Z,39.5
2022-08-14T12:38:31.804Z,39.7
2022-08-14T12:39:42.710Z,39.7
2022-08-14T12:40:49.454Z,39.9
2022-08-14T12:41:59.694Z,39.9
2022-08-14T12:43:02.740Z,40
2022-08-14T12:44:09.433Z,39.9
2022-08-14T12:45:18.557Z,39.8
2022-08-14T12:46:30.524Z,39.8
2022-08-14T12:47:33.775Z,39.9
2022-08-14T12:48:36.997Z,39.8
2022-08-14T12:49:42.853Z,40
2022-08-14T12:50:51.687Z,40.1
2022-08-14T12:51:54.664Z,40.3
2022-08-14T12:53:18.982Z,40.4
2022-08-14T12:54:33.435Z,40.5
2022-08-14T12:56:41.023Z,40.5
2022-08-14T12:57:55.054Z,40.5
2022-08-14T12:58:59.333Z,40.6
2022-08-14T13:00:25.092Z,40.6
2022-08-14T13:01:28.132Z,40.5
2022-08-14T13:02:33.754Z,40.5
2022-08-14T13:03:37.693Z,40.2
2022-08-14T13:04:47.061Z,40.1
2022-08-14T13:05:49.825Z,40
2022-08-14T13:06:54.471Z,40.1
2022-08-14T13:08:00.026Z,40
2022-08-14T13:09:15.614Z,39.9
2022-08-14T13:10:56.473Z,39.7
2022-08-14T13:13:16.064Z,39.8
2022-08-14T13:14:32.749Z,39.7
2022-08-14T13:15:35.600Z,39.8
2022-08-14T13:16:40.570Z,39.7
2022-08-14T13:17:42.918Z,39.6
2022-08-14T13:18:59.080Z,39.6
2022-08-14T13:20:26.637Z,39.6
2022-08-14T13:22:42.678Z,39.7
2022-08-14T13:23:51.045Z,39.2
2022-08-14T13:24:54.916Z,39.3
2022-08-14T13:25:58.079Z,39.5
2022-08-14T13:27:01.086Z,39.3
2022-08-14T13:28:04.118Z,39.3
2022-08-14T13:29:47.861Z,39.4
2022-08-14T13:30:59.288Z,39.5
2022-08-14T13:32:01.841Z,39.6
2022-08-14T13:33:04.580Z,39.7
2022-08-14T13:34:09.410Z,39.7
2022-08-14T13:35:22.975Z,39.8
2022-08-14T13:37:05.133Z,40
2022-08-14T13:38:20.015Z,40.1
2022-08-14T13:39:24.485Z,40.2
2022-08-14T13:40:27.827Z,40.3
2022-08-14T13:41:37.627Z,40.5
2022-08-14T13:42:39.757Z,40.6
2022-08-14T13:44:01.653Z,40.5
2022-08-14T13:45:04.989Z,40.8
2022-08-14T13:46:12.062Z,40.8
2022-08-14T13:47:16.524Z,40.8
2022-08-14T13:48:38.067Z,40.7
2022-08-14T13:49:59.636Z,40.9
2022-08-14T13:51:04.065Z,40.7
2022-08-14T13:52:55.771Z,40.7
2022-08-14T13:54:12.526Z,40.4
2022-08-14T13:55:15.845Z,40.5
2022-08-14T13:56:38.569Z,40.2
2022-08-14T13:58:11.705Z,39.8
2022-08-14T13:59:44.164Z,39.7
2022-08-14T14:00:56.908Z,39.7
2022-08-14T14:01:59.833Z,39.6
2022-08-14T14:03:03.144Z,39.5
2022-08-14T14:04:20.497Z,39.6
2022-08-14T14:05:23.915Z,39.8
2022-08-14T14:06:25.934Z,39.9
2022-08-14T14:07:33.203Z,40
2022-08-14T14:08:48.675Z,39.9
2022-08-14T14:09:54.780Z,40.2
2022-08-14T14:10:57.403Z,40.5
2022-08-14T14:12:01.156Z,40.2
2022-08-14T14:13:06.824Z,40.2
2022-08-14T14:14:55.289Z,40.4
2022-08-14T14:16:00.220Z,40.5
2022-08-14T14:17:02.789Z,40.6
2022-08-14T14:18:42.997Z,40.6
2022-08-14T14:19:54.560Z,40.4
2022-08-14T14:20:57.186Z,40.5
2022-08-14T14:21:59.686Z,40.4
2022-08-14T14:23:18.050Z,40.2
2022-08-14T14:24:21.299Z,40.3
2022-08-14T14:25:24.308Z,40.3
2022-08-14T14:26:27.363Z,40.3
2022-08-14T14:27:43.425Z,40.1
2022-08-14T14:28:46.351Z,40.2
2022-08-14T14:29:59.493Z,40.1
2022-08-14T14:31:08.474Z,40.1
2022-08-14T14:32:31.155Z,40.1
2022-08-14T14:33:52.548Z,40.2
2022-08-14T14:35:00.682Z,40.2
2022-08-14T14:36:06.271Z,40.4
2022-08-14T14:37:13.256Z,40.4
2022-08-14T14:38:21.347Z,40.4
2022-08-14T14:41:02.442Z,40.5
2022-08-14T14:42:09.664Z,40.5
2022-08-14T14:43:45.115Z,40.4
2022-08-14T14:44:57.821Z,40.3
2022-08-14T14:46:00.182Z,40.2
2022-08-14T14:47:11.393Z,40.1
2022-08-14T14:48:19.773Z,40.1
2022-08-14T14:49:55.903Z,40.1
2022-08-14T14:50:59.950Z,40.1
2022-08-14T14:52:02.004Z,40.1
2022-08-14T14:53:14.813Z,40.2
2022-08-14T14:54:39.567Z,40.2
2022-08-14T14:56:54.921Z,40.3
2022-08-14T14:57:57.208Z,40.4
2022-08-14T14:58:59.438Z,40.4
2022-08-14T15:00:04.819Z,40.3
2022-08-14T15:01:13.278Z,40.3
2022-08-14T15:02:18.647Z,40.4
2022-08-14T15:03:21.241Z,40.5
2022-08-14T15:04:27.469Z,40.5
2022-08-14T15:05:35.323Z,40.5
2022-08-14T15:06:49.523Z,40.5
2022-08-14T15:07:54.818Z,40.6
2022-08-14T15:09:01.701Z,40.6
2022-08-14T15:10:40.795Z,40.5
2022-08-14T15:11:56.488Z,40.8
2022-08-14T15:13:09.212Z,41
2022-08-14T15:15:12.533Z,41.1
2022-08-14T15:16:18.138Z,40.5
2022-08-14T15:17:22.929Z,40.5
2022-08-14T15:18:50.091Z,40.6
2022-08-14T15:19:59.228Z,40.6
2022-08-14T15:21:02.045Z,40.5
2022-08-14T15:22:11.152Z,40.6
2022-08-14T15:23:15.495Z,40.7
2022-08-14T15:24:27.797Z,40.6
2022-08-14T15:25:30.428Z,40.7
2022-08-14T15:26:34.834Z,40.9
2022-08-14T15:27:55.534Z,41
2022-08-14T15:29:07.448Z,41.1
2022-08-14T15:30:32.024Z,41.2
2022-08-14T15:31:40.108Z,41.2
2022-08-14T15:32:43.812Z,41.2
2022-08-14T15:34:54.303Z,41
2022-08-14T15:36:02.686Z,41.1
2022-08-14T15:37:35.335Z,41.1
2022-08-14T15:38:49.373Z,41.2
2022-08-14T15:39:54.955Z,41.2
2022-08-14T15:40:57.345Z,41.1
2022-08-14T15:42:00.795Z,41.2
2022-08-14T15:43:02.916Z,41.1
2022-08-14T15:45:01.341Z,41.2
2022-08-14T15:46:07.422Z,41.4
2022-08-14T15:47:53.247Z,41.4
2022-08-14T15:48:56.963Z,41.5
2022-08-14T15:50:02.330Z,41.5
2022-08-14T15:51:06.057Z,41.6
2022-08-14T15:52:45.298Z,41.6
2022-08-14T15:53:53.208Z,41.8
2022-08-14T15:54:55.286Z,41.8
2022-08-14T15:55:59.361Z,41.8
2022-08-14T15:57:04.373Z,41.8
2022-08-14T15:58:19.211Z,41.7
2022-08-14T15:59:28.845Z,41.5
2022-08-14T16:00:53.238Z,41.2
2022-08-14T16:01:56.973Z,41.3
2022-08-14T16:03:01.491Z,41.4
2022-08-14T16:04:08.046Z,41.4
2022-08-14T16:05:39.116Z,41.5
2022-08-14T16:06:55.998Z,41.4
2022-08-14T16:07:58.819Z,41.3
2022-08-14T16:09:14.910Z,41.2
2022-08-14T16:10:31.664Z,40.9
2022-08-14T16:11:54.705Z,40.9
2022-08-14T16:12:57.366Z,40.9
2022-08-14T16:14:07.295Z,41
2022-08-14T16:15:13.255Z,40.9
2022-08-14T16:17:07.455Z,41
2022-08-14T16:18:19.779Z,41
2022-08-14T16:19:25.673Z,41
2022-08-14T16:20:47.227Z,40.8
2022-08-14T16:23:01.336Z,40.8
2022-08-14T16:24:03.696Z,40.7
2022-08-14T16:25:06.339Z,40.6
2022-08-14T16:26:20.434Z,40.3
2022-08-14T16:27:45.598Z,40.4
2022-08-14T16:28:54.058Z,40.4
2022-08-14T16:29:56.995Z,40.3
2022-08-14T16:30:59.066Z,40
2022-08-14T16:32:59.335Z,39.8
2022-08-14T16:34:57.556Z,39.9
2022-08-14T16:36:02.661Z,40
2022-08-14T16:37:36.296Z,39.9
2022-08-14T16:38:49.447Z,39.9
2022-08-14T16:39:57.488Z,39.7
2022-08-14T16:41:04.760Z,39.6
2022-08-14T16:43:16.771Z,39.3
2022-08-14T16:44:34.625Z,38.9
2022-08-14T16:45:54.838Z,38.9
2022-08-14T16:47:00.201Z,38.9
2022-08-14T16:48:02.584Z,38.5
2022-08-14T16:49:04.710Z,38.5
2022-08-14T16:50:11.762Z,38.3
2022-08-14T16:51:53.935Z,38.2
2022-08-14T16:53:09.561Z,38.3
2022-08-14T16:54:46.235Z,38.3
2022-08-14T16:55:58.057Z,38.1
2022-08-14T16:57:08.566Z,38.1
2022-08-14T16:58:15.737Z,38
2022-08-14T16:59:59.626Z,38
2022-08-14T17:01:30.040Z,38